Hartford, New York
Current Conditions -  °F | °C
As of 1:53 AM on Thursday 23 Oct 2014 (Local Time) from KGFL Reporting Station
Overcast Overcast  
Wind Chill: 52°   Ceiling: 2900
Heat Index: 52°   Visibility: 10mi
Dew Point: 41°   Wind: 9mph
Humidity: 66%   Direction: 30°NNE
Pressure: 29.94"   Gusts: NA
Location:  43.36°N, 73.39°W
Report Text: KGFL 230553Z AUTO 03008KT 10SM OVC029 11/05 A2994 RMK AO2 SLP141 60000 T01110050 10117 20111 56006
Loading
Personal Weather Stations






























Interactive Weather Map
Tropical Storm Tracking
New forecast layout! Learn more

10-Day Weather Forecast

Advertisements
Track Severe Weather on mobile